Weather at Asaba International Airport

Public forecast

Using degrees Celsius for public forecast. Weather courtesy of forecast.io.

Closest aviation weather report (METAR) to Asaba International Airport

Report is more than 6 hours old.

Closest report is Akanu Ibiam International Airport, 55.9 nm (103.5 km) ENE.

2022/11/14 15:00 (retrieved 2 years ago)

DNEN 141500Z 30009KT 9999 FEW014 34/24 Q1010 NOSIG

Closest aviation forecast (TAF) to Asaba International Airport

Forecast is more than 12 hours old.

Closest forecast is Benin Airport, 64.0 nm (118.5 km) W.

2023/02/22 18:00 (retrieved 1 year ago)

TAF DNBE 221700Z 2218/2324 VRB02KT 3000 HZ NSC TEMPO 2305/2309 1500 BR BECMG 2309/2311 21010KT BKN014 BECMG 2317/2319 VRB02KT FEW011